createdAt,value
2018-04-10T00:00:32.977Z,95.80
2018-04-10T00:03:00.413Z,95.90
2018-04-10T00:05:27.865Z,95.80
2018-04-10T00:07:55.313Z,96.00
2018-04-10T00:10:22.765Z,96.00
2018-04-10T00:12:50.205Z,96.10
2018-04-10T00:15:17.662Z,96.30
2018-04-10T00:17:45.129Z,97.00
2018-04-10T00:20:12.577Z,98.00
2018-04-10T00:22:40.032Z,98.30
2018-04-10T00:25:07.482Z,98.70
2018-04-10T00:27:35.689Z,99.20
2018-04-10T00:30:03.135Z,99.20
2018-04-10T00:32:30.582Z,99.10
2018-04-10T00:34:58.037Z,99.40
2018-04-10T00:37:25.485Z,99.90
2018-04-10T00:39:53.712Z,99.80
2018-04-10T00:42:21.155Z,99.80
2018-04-10T00:44:48.593Z,99.50
2018-04-10T00:47:16.041Z,99.20
2018-04-10T00:49:43.490Z,98.60
2018-04-10T00:52:11.702Z,98.20
2018-04-10T00:54:39.157Z,98.20
2018-04-10T00:57:06.644Z,98.00
2018-04-10T00:59:34.069Z,97.90
2018-04-10T01:02:01.515Z,97.90
2018-04-10T01:04:28.953Z,97.70
2018-04-10T01:06:56.414Z,97.70
2018-04-10T01:09:23.854Z,97.70
2018-04-10T01:11:52.068Z,97.50
2018-04-10T01:14:19.513Z,97.50
2018-04-10T01:16:46.962Z,97.50
2018-04-10T01:19:14.429Z,97.50
2018-04-10T01:21:41.892Z,97.50
2018-04-10T01:24:09.322Z,97.50
2018-04-10T01:26:37.550Z,97.60
2018-04-10T01:29:04.999Z,97.60
2018-04-10T01:31:32.444Z,97.60
2018-04-10T01:33:59.900Z,97.60
2018-04-10T01:36:27.357Z,97.50
2018-04-10T01:38:54.817Z,98.20
2018-04-10T01:41:22.248Z,97.80
2018-04-10T01:43:49.701Z,98.10
2018-04-10T01:46:17.144Z,99.10
2018-04-10T01:48:45.367Z,99.20
2018-04-10T01:51:12.801Z,99.10
2018-04-10T01:53:40.250Z,98.50
2018-04-10T01:56:07.693Z,98.60
2018-04-10T01:58:35.917Z,98.40
2018-04-10T02:01:03.377Z,98.40
2018-04-10T02:03:30.817Z,98.40
2018-04-10T02:05:58.257Z,98.20
2018-04-10T02:08:25.722Z,98.30
2018-04-10T02:10:53.169Z,98.40
2018-04-10T02:13:20.641Z,98.30
2018-04-10T02:15:48.101Z,98.30
2018-04-10T02:18:15.549Z,98.70
2018-04-10T02:20:42.990Z,99.10
2018-04-10T02:23:11.221Z,99.60
2018-04-10T02:25:38.674Z,99.60
2018-04-10T02:28:06.141Z,99.90
2018-04-10T02:30:33.626Z,99.90
2018-04-10T02:33:01.837Z,99.90
2018-04-10T02:35:29.293Z,99.90
2018-04-10T02:37:56.741Z,99.90
2018-04-10T02:40:24.177Z,99.90
2018-04-10T02:42:52.397Z,99.90
2018-04-10T02:45:19.834Z,99.90
2018-04-10T02:47:47.290Z,99.90
2018-04-10T02:50:14.746Z,99.90
2018-04-10T02:52:42.202Z,99.90
2018-04-10T02:55:09.634Z,99.90
2018-04-10T02:57:37.860Z,99.90
2018-04-10T03:00:05.314Z,99.90
2018-04-10T03:02:32.737Z,99.90
2018-04-10T03:05:00.211Z,99.90
2018-04-10T03:07:27.665Z,99.90
2018-04-10T03:09:55.109Z,99.90
2018-04-10T03:12:22.557Z,99.90
2018-04-10T03:14:50.769Z,99.90
2018-04-10T03:17:18.228Z,99.90
2018-04-10T03:19:45.665Z,99.90
2018-04-10T03:22:13.113Z,99.90
2018-04-10T03:24:40.584Z,99.90
2018-04-10T03:27:08.026Z,99.90
2018-04-10T03:29:36.241Z,99.90
2018-04-10T03:32:03.673Z,99.90
2018-04-10T03:34:31.126Z,99.90
2018-04-10T03:36:58.575Z,99.90
2018-04-10T03:39:26.033Z,99.90
2018-04-10T03:41:53.465Z,99.90
2018-04-10T03:44:21.681Z,99.90
2018-04-10T03:46:49.129Z,99.90
2018-04-10T03:49:16.583Z,99.90
2018-04-10T03:51:44.041Z,99.90
2018-04-10T03:54:11.513Z,99.90
2018-04-10T03:56:38.953Z,99.90
2018-04-10T03:59:06.406Z,99.90
2018-04-10T04:01:33.847Z,99.90
2018-04-10T04:04:02.077Z,99.90
2018-04-10T04:06:29.522Z,99.90
2018-04-10T04:08:56.982Z,99.90
2018-04-10T04:11:24.422Z,99.90
2018-04-10T04:13:51.873Z,99.90
2018-04-10T04:16:31.169Z,99.90
2018-04-10T04:19:10.509Z,99.90
2018-04-10T04:24:43.461Z,99.90
2018-04-10T04:27:10.909Z,99.90
2018-04-10T04:29:38.353Z,99.90
2018-04-10T04:32:05.814Z,99.90
2018-04-10T04:34:33.285Z,99.90
2018-04-10T04:37:00.730Z,99.90
2018-04-10T04:39:28.198Z,99.90
2018-04-10T04:41:55.644Z,99.90
2018-04-10T04:44:23.117Z,99.90
2018-04-10T04:46:50.561Z,99.90
2018-04-10T04:49:18.021Z,99.90
2018-04-10T04:51:45.477Z,99.90
2018-04-10T04:54:12.943Z,99.90
2018-04-10T04:56:40.402Z,99.90
2018-04-10T04:59:07.860Z,99.90
2018-04-10T05:01:35.303Z,99.90
2018-04-10T05:04:02.761Z,99.90
2018-04-10T05:06:30.202Z,99.90
2018-04-10T05:08:58.422Z,99.90
2018-04-10T05:11:25.862Z,99.90
2018-04-10T05:13:53.312Z,99.90
2018-04-10T05:16:20.746Z,99.90
2018-04-10T05:18:49.000Z,99.90
2018-04-10T05:21:16.433Z,99.90
2018-04-10T05:23:43.885Z,99.90
2018-04-10T05:26:11.335Z,99.90
2018-04-10T05:28:38.785Z,99.90
2018-04-10T05:31:06.252Z,99.90
2018-04-10T05:33:33.705Z,99.90
2018-04-10T05:36:01.154Z,99.90
2018-04-10T05:38:28.606Z,99.90
2018-04-10T05:40:56.045Z,99.90
2018-04-10T05:43:23.497Z,99.90
2018-04-10T05:45:51.710Z,99.90
2018-04-10T05:48:19.167Z,99.90
2018-04-10T05:50:46.639Z,99.90
2018-04-10T05:53:14.082Z,99.90
2018-04-10T05:55:41.534Z,99.90
2018-04-10T05:58:08.998Z,99.90
2018-04-10T06:00:36.451Z,99.90
2018-04-10T06:03:03.905Z,99.90
2018-04-10T06:05:31.371Z,99.90
2018-04-10T06:07:58.817Z,99.90
2018-04-10T06:10:26.270Z,99.90
2018-04-10T06:12:53.738Z,99.90
2018-04-10T06:15:21.237Z,99.90
2018-04-10T06:17:48.717Z,99.90
2018-04-10T06:20:16.953Z,99.90
2018-04-10T06:22:44.401Z,99.90
2018-04-10T06:25:11.880Z,99.90
2018-04-10T06:27:39.327Z,99.90
2018-04-10T06:30:06.807Z,99.90
2018-04-10T06:32:34.254Z,99.90
2018-04-10T06:35:01.710Z,99.90
2018-04-10T06:37:29.155Z,99.90
2018-04-10T06:39:56.633Z,99.90
2018-04-10T06:42:24.075Z,99.90
2018-04-10T06:44:51.522Z,99.90
2018-04-10T06:47:19.020Z,99.90
2018-04-10T06:49:47.229Z,99.90
2018-04-10T06:52:14.686Z,99.90
2018-04-10T06:54:42.131Z,99.90
2018-04-10T06:57:09.590Z,99.90
2018-04-10T06:59:37.047Z,99.90
2018-04-10T07:02:04.498Z,99.90
2018-04-10T07:04:31.945Z,99.90
2018-04-10T07:06:59.401Z,99.90
2018-04-10T07:09:26.837Z,99.90
2018-04-10T07:11:54.297Z,99.90
2018-04-10T07:14:21.742Z,99.90
2018-04-10T07:16:49.195Z,99.90
2018-04-10T07:19:16.655Z,99.90
2018-04-10T07:21:44.113Z,99.90
2018-04-10T07:24:11.547Z,99.90
2018-04-10T07:26:39.007Z,99.90
2018-04-10T07:29:06.446Z,99.90
2018-04-10T07:31:33.887Z,99.90
2018-04-10T07:34:01.362Z,99.90
2018-04-10T07:36:28.811Z,99.90
2018-04-10T07:38:56.279Z,99.90
2018-04-10T07:41:23.718Z,99.90
2018-04-10T07:43:51.166Z,99.90
2018-04-10T07:46:18.614Z,99.90
2018-04-10T07:48:46.837Z,99.90
2018-04-10T07:51:14.277Z,99.90
2018-04-10T07:53:41.730Z,99.90
2018-04-10T07:56:09.172Z,99.50
2018-04-10T07:58:36.656Z,98.50
2018-04-10T08:01:04.062Z,99.90
2018-04-10T08:03:32.313Z,99.20
2018-04-10T08:05:59.730Z,99.20
2018-04-10T08:08:27.177Z,97.70
2018-04-10T08:10:54.607Z,95.00
2018-04-10T08:13:22.840Z,97.00
2018-04-10T08:18:24.122Z,97.30
2018-04-10T08:20:51.571Z,97.00
2018-04-10T08:23:19.034Z,97.30
2018-04-10T08:25:46.481Z,97.80
2018-04-10T08:28:13.944Z,97.70
2018-04-10T08:30:41.385Z,96.50
2018-04-10T08:33:08.825Z,94.30
2018-04-10T08:35:36.275Z,92.00
2018-04-10T08:38:03.714Z,91.30
2018-04-10T08:40:31.937Z,90.00
2018-04-10T08:42:59.390Z,89.90
2018-04-10T08:45:26.863Z,88.10
2018-04-10T08:47:54.298Z,87.60
2018-04-10T08:50:21.752Z,89.30
2018-04-10T08:52:49.214Z,90.50
2018-04-10T08:55:16.650Z,92.00
2018-04-10T08:57:44.130Z,93.20
2018-04-10T09:00:11.585Z,93.90
2018-04-10T09:02:39.043Z,95.10
2018-04-10T09:05:06.493Z,94.30
2018-04-10T09:07:33.933Z,94.20
2018-04-10T09:10:01.397Z,93.20
2018-04-10T09:12:28.875Z,92.60
2018-04-10T09:14:56.329Z,91.80
2018-04-10T09:17:23.773Z,91.30
2018-04-10T09:19:51.222Z,93.00
2018-04-10T09:22:18.666Z,94.50
2018-04-10T09:24:46.119Z,94.60
2018-04-10T09:27:13.557Z,94.60
2018-04-10T09:29:41.798Z,93.60
2018-04-10T09:32:09.242Z,93.60
2018-04-10T09:34:36.704Z,93.70
2018-04-10T09:37:04.138Z,93.00
2018-04-10T09:39:31.617Z,93.50
2018-04-10T09:41:59.070Z,93.50
2018-04-10T09:44:26.527Z,94.10
2018-04-10T09:46:53.983Z,93.30
2018-04-10T09:49:21.445Z,91.70
2018-04-10T09:51:48.900Z,92.70
2018-04-10T09:54:16.358Z,91.20
2018-04-10T09:56:43.814Z,88.60
2018-04-10T09:59:11.254Z,87.30
2018-04-10T10:01:38.704Z,89.10
2018-04-10T10:04:06.137Z,87.40
2018-04-10T10:06:34.357Z,81.30
2018-04-10T10:09:01.789Z,81.10
2018-04-10T10:11:29.243Z,80.20
2018-04-10T10:13:57.465Z,72.50
2018-04-10T10:16:24.921Z,72.90
2018-04-10T10:18:52.359Z,71.90
2018-04-10T10:21:19.814Z,79.20
2018-04-10T10:23:47.283Z,72.90
2018-04-10T10:26:14.761Z,75.80
2018-04-10T10:28:42.206Z,66.20
2018-04-10T10:31:09.666Z,69.80
2018-04-10T10:33:37.123Z,72.00
2018-04-10T10:36:04.580Z,68.30
2018-04-10T10:38:32.019Z,62.50
2018-04-10T10:40:59.478Z,67.50
2018-04-10T10:43:26.915Z,70.70
2018-04-10T10:45:54.371Z,69.10
2018-04-10T10:48:21.814Z,70.00
2018-04-10T10:50:50.045Z,75.00
2018-04-10T10:53:17.486Z,75.10
2018-04-10T10:55:44.933Z,64.60
2018-04-10T10:58:12.406Z,55.90
2018-04-10T11:00:39.873Z,54.40
2018-04-10T11:03:07.262Z,59.10
2018-04-10T11:05:35.478Z,62.30
2018-04-10T11:08:02.913Z,62.20
2018-04-10T11:10:30.361Z,67.80
2018-04-10T11:12:58.561Z,65.80
2018-04-10T11:15:26.018Z,65.70
2018-04-10T11:17:53.458Z,71.40
2018-04-10T11:20:20.901Z,70.30
2018-04-10T11:22:49.113Z,69.30
2018-04-10T11:25:16.569Z,69.10
2018-04-10T11:27:44.026Z,69.50
2018-04-10T11:30:11.475Z,69.80
2018-04-10T11:32:38.920Z,71.10
2018-04-10T11:35:06.365Z,70.20
2018-04-10T11:37:34.597Z,74.10
2018-04-10T11:40:02.052Z,74.10
2018-04-10T11:42:29.495Z,72.70
2018-04-10T11:44:56.945Z,72.00
2018-04-10T11:47:24.405Z,74.70
2018-04-10T11:49:51.852Z,74.80
2018-04-10T11:52:19.304Z,73.50
2018-04-10T11:54:46.766Z,73.70
2018-04-10T11:57:14.206Z,71.50
2018-04-10T11:59:41.642Z,73.30
2018-04-10T12:02:09.862Z,74.90
2018-04-10T12:04:37.323Z,74.90
2018-04-10T12:07:04.773Z,73.60
2018-04-10T12:09:32.214Z,73.40
2018-04-10T12:11:59.657Z,70.40
2018-04-10T12:14:27.095Z,70.10
2018-04-10T12:16:54.543Z,72.60
2018-04-10T12:19:21.977Z,74.40
2018-04-10T12:21:49.426Z,69.50
2018-04-10T12:24:16.918Z,72.90
2018-04-10T12:26:44.343Z,73.80
2018-04-10T12:29:11.782Z,74.00
2018-04-10T12:31:39.231Z,74.50
2018-04-10T12:34:06.676Z,73.60
2018-04-10T12:36:34.891Z,74.00
2018-04-10T12:39:02.357Z,74.10
2018-04-10T12:41:29.806Z,83.60
2018-04-10T12:43:57.246Z,85.40
2018-04-10T12:46:24.713Z,84.00
2018-04-10T12:48:52.163Z,85.40
2018-04-10T12:51:19.614Z,88.10
2018-04-10T12:53:47.061Z,89.30
2018-04-10T12:56:14.518Z,89.80
2018-04-10T12:58:41.953Z,87.40
2018-04-10T13:01:09.404Z,88.40
2018-04-10T13:03:37.617Z,87.80
2018-04-10T13:06:05.082Z,87.70
2018-04-10T13:08:32.526Z,87.00
2018-04-10T13:10:59.979Z,86.70
2018-04-10T13:13:27.406Z,83.00
2018-04-10T13:15:55.634Z,84.70
2018-04-10T13:18:23.093Z,84.50
2018-04-10T13:20:50.559Z,85.50
2018-04-10T13:23:18.014Z,85.80
2018-04-10T13:25:45.470Z,86.20
2018-04-10T13:28:12.902Z,87.00
2018-04-10T13:30:40.378Z,85.00
2018-04-10T13:33:07.825Z,86.50
2018-04-10T13:35:35.279Z,84.40
2018-04-10T13:38:02.718Z,87.50
2018-04-10T13:40:30.177Z,90.20
2018-04-10T13:42:57.614Z,88.40
2018-04-10T13:45:25.063Z,87.40
2018-04-10T13:47:52.493Z,86.10
2018-04-10T13:50:19.951Z,85.90
2018-04-10T13:52:47.388Z,90.00
2018-04-10T13:55:14.858Z,90.20
2018-04-10T13:57:42.302Z,89.60
2018-04-10T14:00:09.758Z,90.70
2018-04-10T14:02:37.212Z,90.80
2018-04-10T14:05:04.650Z,87.90
2018-04-10T14:07:32.124Z,86.80
2018-04-10T14:09:59.558Z,86.30
2018-04-10T14:12:27.013Z,86.60
2018-04-10T14:14:54.472Z,87.00
2018-04-10T14:17:21.926Z,86.00
2018-04-10T14:19:49.358Z,85.80
2018-04-10T14:22:16.808Z,87.20
2018-04-10T14:24:44.258Z,83.20
2018-04-10T14:27:11.701Z,82.20
2018-04-10T14:29:39.169Z,81.90
2018-04-10T14:32:06.614Z,82.50
2018-04-10T14:34:34.826Z,86.10
2018-04-10T14:37:03.075Z,84.70
2018-04-10T14:39:30.478Z,84.70
2018-04-10T14:41:57.930Z,84.30
2018-04-10T14:44:25.369Z,85.10
2018-04-10T14:46:53.593Z,84.80
2018-04-10T14:49:21.029Z,84.80
2018-04-10T14:51:48.486Z,83.90
2018-04-10T14:54:15.927Z,83.90
2018-04-10T14:56:44.142Z,85.30
2018-04-10T14:59:11.602Z,85.30
2018-04-10T15:01:39.095Z,85.20
2018-04-10T15:04:06.522Z,85.00
2018-04-10T15:06:34.774Z,86.00
2018-04-10T15:09:02.194Z,85.90
2018-04-10T15:11:30.411Z,87.10
2018-04-10T15:13:57.849Z,87.10
2018-04-10T15:16:25.305Z,86.60
2018-04-10T15:18:52.753Z,85.40
2018-04-10T15:21:20.981Z,85.30
2018-04-10T15:23:48.413Z,85.10
2018-04-10T15:26:15.858Z,84.30
2018-04-10T15:28:43.313Z,85.10
2018-04-10T15:31:10.746Z,85.40
2018-04-10T15:33:38.961Z,86.00
2018-04-10T15:36:06.397Z,85.90
2018-04-10T15:38:33.858Z,86.20
2018-04-10T15:41:01.325Z,87.40
2018-04-10T15:43:28.755Z,86.20
2018-04-10T15:45:56.962Z,85.90
2018-04-10T15:48:24.422Z,85.70
2018-04-10T15:50:51.867Z,87.00
2018-04-10T15:53:19.327Z,87.70
2018-04-10T15:55:46.790Z,87.70
2018-04-10T15:58:14.233Z,87.50
2018-04-10T16:00:41.685Z,87.60
2018-04-10T16:03:09.128Z,88.30
2018-04-10T16:05:37.346Z,89.80
2018-04-10T16:08:04.796Z,89.80
2018-04-10T16:10:32.240Z,90.50
2018-04-10T16:12:59.690Z,90.40
2018-04-10T16:15:27.130Z,90.30
2018-04-10T16:17:55.347Z,88.30
2018-04-10T16:20:22.797Z,88.20
2018-04-10T16:22:50.259Z,87.60
2018-04-10T16:25:17.702Z,88.20
2018-04-10T16:27:45.167Z,88.80
2018-04-10T16:30:12.613Z,88.80
2018-04-10T16:32:40.075Z,89.30
2018-04-10T16:35:07.534Z,88.50
2018-04-10T16:37:34.993Z,88.00
2018-04-10T16:40:02.496Z,88.40
2018-04-10T16:42:29.937Z,88.50
2018-04-10T16:44:57.390Z,87.50
2018-04-10T16:47:24.839Z,87.70
2018-04-10T16:49:52.300Z,87.90
2018-04-10T16:52:19.725Z,87.90
2018-04-10T16:54:47.177Z,88.50
2018-04-10T16:57:14.656Z,88.30
2018-04-10T16:59:42.113Z,87.80
2018-04-10T17:02:09.553Z,88.70
2018-04-10T17:04:37.004Z,89.80
2018-04-10T17:07:04.454Z,89.20
2018-04-10T17:09:31.927Z,88.70
2018-04-10T17:11:59.358Z,88.40
2018-04-10T17:14:27.585Z,88.20
2018-04-10T17:16:55.018Z,88.20
2018-04-10T17:19:22.477Z,88.00
2018-04-10T17:21:49.942Z,87.80
2018-04-10T17:24:17.394Z,87.90
2018-04-10T17:26:44.849Z,89.00
2018-04-10T17:29:12.306Z,91.30
2018-04-10T17:31:39.767Z,91.40
2018-04-10T17:34:07.225Z,90.30
2018-04-10T17:36:34.682Z,90.30
2018-04-10T17:39:02.146Z,90.50
2018-04-10T17:41:29.601Z,90.50
2018-04-10T17:43:57.067Z,90.90
2018-04-10T17:46:24.519Z,91.30
2018-04-10T17:48:51.974Z,91.70
2018-04-10T17:51:19.433Z,92.10
2018-04-10T17:53:46.861Z,92.30
2018-04-10T17:56:14.318Z,92.40
2018-04-10T17:58:41.766Z,92.30
2018-04-10T18:01:09.991Z,92.70
2018-04-10T18:03:37.482Z,92.60
2018-04-10T18:06:04.923Z,93.10
2018-04-10T18:08:32.369Z,93.20
2018-04-10T18:10:59.826Z,93.20
2018-04-10T18:13:27.258Z,93.40
2018-04-10T18:15:54.690Z,94.40
2018-04-10T18:18:22.906Z,95.40
2018-04-10T18:20:50.358Z,95.40
2018-04-10T18:23:17.806Z,97.70
2018-04-10T18:25:45.245Z,99.40
2018-04-10T18:28:12.699Z,99.90
2018-04-10T18:30:40.150Z,99.90
2018-04-10T18:33:07.607Z,99.90
2018-04-10T18:35:35.080Z,99.90
2018-04-10T18:38:02.540Z,99.90
2018-04-10T18:40:29.998Z,99.90
2018-04-10T18:42:57.462Z,99.90
2018-04-10T18:45:24.902Z,99.90
2018-04-10T18:47:52.363Z,99.90
2018-04-10T18:50:19.806Z,99.90
2018-04-10T18:52:48.039Z,99.90
2018-04-10T18:55:15.473Z,99.90
2018-04-10T18:57:42.940Z,99.90
2018-04-10T19:00:10.373Z,99.90
2018-04-10T19:02:37.820Z,99.90
2018-04-10T19:05:05.268Z,99.90
2018-04-10T19:07:32.723Z,99.90
2018-04-10T19:10:00.925Z,99.90
2018-04-10T19:12:28.416Z,99.90
2018-04-10T19:14:55.825Z,99.90
2018-04-10T19:17:23.268Z,99.90
2018-04-10T19:19:51.494Z,99.90
2018-04-10T19:22:18.925Z,99.90
2018-04-10T19:24:46.386Z,99.90
2018-04-10T19:27:13.830Z,99.90
2018-04-10T19:29:41.279Z,99.90
2018-04-10T19:32:08.729Z,99.90
2018-04-10T19:34:36.951Z,99.90
2018-04-10T19:37:04.434Z,99.90
2018-04-10T19:39:31.853Z,99.90
2018-04-10T19:41:59.297Z,99.90
2018-04-10T19:44:26.757Z,99.90
2018-04-10T19:46:54.193Z,99.90
2018-04-10T19:49:21.646Z,99.90
2018-04-10T19:51:50.345Z,99.90
2018-04-10T19:54:17.825Z,99.90
2018-04-10T19:56:45.267Z,99.90
2018-04-10T19:59:12.721Z,99.90
2018-04-10T20:01:40.152Z,99.90
2018-04-10T20:04:08.353Z,99.90
2018-04-10T20:06:35.789Z,99.90
2018-04-10T20:09:03.236Z,99.90
2018-04-10T20:11:31.447Z,99.90
2018-04-10T20:13:58.881Z,99.90
2018-04-10T20:16:26.337Z,99.90
2018-04-10T20:18:53.769Z,99.90
2018-04-10T20:21:21.230Z,99.90
2018-04-10T20:23:48.670Z,99.90
2018-04-10T20:26:16.130Z,99.90
2018-04-10T20:28:43.566Z,99.90
2018-04-10T20:31:11.022Z,99.90
2018-04-10T20:33:38.465Z,99.90
2018-04-10T20:36:05.933Z,99.90
2018-04-10T20:38:33.377Z,99.90
2018-04-10T20:41:00.843Z,99.90
2018-04-10T20:43:28.281Z,99.90
2018-04-10T20:45:55.737Z,99.90
2018-04-10T20:48:23.193Z,99.90
2018-04-10T20:50:50.663Z,99.90
2018-04-10T20:53:18.117Z,99.90
2018-04-10T20:55:45.561Z,99.90
2018-04-10T20:58:13.018Z,99.90
2018-04-10T21:00:40.463Z,99.90
2018-04-10T21:03:08.681Z,99.90
2018-04-10T21:05:36.126Z,99.90
2018-04-10T21:08:03.592Z,99.90
2018-04-10T21:10:31.016Z,99.90
2018-04-10T21:12:58.478Z,99.90
2018-04-10T21:15:25.918Z,99.90
2018-04-10T21:17:54.153Z,99.90
2018-04-10T21:20:21.588Z,99.90
2018-04-10T21:22:49.041Z,99.90
2018-04-10T21:25:16.482Z,99.90
2018-04-10T21:27:43.923Z,99.90
2018-04-10T21:30:11.371Z,99.90
2018-04-10T21:32:39.578Z,99.90
2018-04-10T21:35:07.015Z,99.90
2018-04-10T21:37:34.467Z,99.90
2018-04-10T21:40:02.686Z,99.90
2018-04-10T21:42:30.143Z,99.90
2018-04-10T21:44:57.601Z,99.90
2018-04-10T21:47:25.051Z,99.90
2018-04-10T21:49:52.481Z,99.90
2018-04-10T21:52:19.917Z,99.90
2018-04-10T21:54:47.369Z,99.90
2018-04-10T21:57:14.810Z,99.90
2018-04-10T21:59:42.269Z,99.90
2018-04-10T22:02:09.716Z,99.90
2018-04-10T22:04:37.168Z,99.90
2018-04-10T22:07:05.365Z,99.90
2018-04-10T22:09:32.818Z,99.90
2018-04-10T22:12:00.316Z,99.90
2018-04-10T22:14:27.718Z,99.90
2018-04-10T22:16:55.176Z,99.90
2018-04-10T22:19:22.620Z,99.90
2018-04-10T22:21:50.045Z,99.90
2018-04-10T22:24:17.493Z,99.90
2018-04-10T22:26:45.694Z,99.90
2018-04-10T22:29:13.153Z,99.90
2018-04-10T22:31:40.584Z,99.90
2018-04-10T22:34:08.774Z,99.90
2018-04-10T22:36:36.234Z,99.90
2018-04-10T22:39:03.693Z,99.90
2018-04-10T22:41:31.159Z,99.90
2018-04-10T22:43:58.606Z,99.90
2018-04-10T22:46:26.042Z,99.90
2018-04-10T22:48:53.496Z,99.90
2018-04-10T22:51:20.946Z,99.90
2018-04-10T22:53:48.385Z,99.90
2018-04-10T22:56:15.829Z,99.90
2018-04-10T22:58:44.067Z,99.90
2018-04-10T23:01:11.521Z,99.90
2018-04-10T23:03:38.959Z,99.90
2018-04-10T23:06:06.412Z,99.90
2018-04-10T23:08:33.850Z,99.90
2018-04-10T23:11:01.310Z,99.90
2018-04-10T23:13:28.758Z,99.90
2018-04-10T23:15:56.986Z,99.90
2018-04-10T23:18:24.442Z,99.90
2018-04-10T23:20:51.895Z,99.90
2018-04-10T23:23:19.335Z,99.90
2018-04-10T23:25:46.790Z,99.90
2018-04-10T23:28:14.998Z,99.90
2018-04-10T23:30:42.452Z,99.90
2018-04-10T23:33:09.898Z,99.90
2018-04-10T23:35:37.353Z,99.90
2018-04-10T23:38:04.798Z,99.90
2018-04-10T23:40:33.023Z,99.90
2018-04-10T23:43:00.479Z,99.90
2018-04-10T23:45:27.923Z,99.90
2018-04-10T23:47:55.379Z,99.90
2018-04-10T23:50:22.823Z,99.90
2018-04-10T23:52:50.281Z,99.90
2018-04-10T23:55:17.722Z,99.90
2018-04-10T23:57:45.936Z,99.90
